createdAt,value
2022-09-18T00:00:06.964Z,104609.03
2022-09-18T00:02:33.388Z,104612.63
2022-09-18T00:04:59.845Z,104637.97
2022-09-18T00:07:26.287Z,104562.06
2022-09-18T00:09:52.684Z,104577.41
2022-09-18T00:12:19.104Z,104567.31
2022-09-18T00:14:45.459Z,104647.94
2022-09-18T00:17:11.876Z,104549.44
2022-09-18T00:19:38.266Z,104577.38
2022-09-18T00:22:04.774Z,104649.38
2022-09-18T00:24:31.172Z,104566.38
2022-09-18T00:26:57.629Z,104672.16
2022-09-18T00:29:24.064Z,104641.31
2022-09-18T00:31:50.510Z,104625.75
2022-09-18T00:34:17.242Z,104537.25
2022-09-18T00:36:43.959Z,104586.81
2022-09-18T00:39:10.788Z,104576.56
2022-09-18T00:41:39.637Z,104587.75
2022-09-18T00:44:32.607Z,104634.38
2022-09-18T00:47:15.481Z,104540.78
2022-09-18T00:49:51.005Z,104624.63
2022-09-18T00:52:20.244Z,104623.19
2022-09-18T00:54:50.861Z,104561.19
2022-09-18T00:57:22.188Z,104642.69
2022-09-18T00:59:51.344Z,104582.28
2022-09-18T01:02:18.557Z,104590.84
2022-09-18T01:04:45.637Z,104617.44
2022-09-18T01:07:42.364Z,104633.75
2022-09-18T01:10:19.576Z,104674.25
2022-09-18T01:12:54.998Z,104718.38
2022-09-18T01:15:47.243Z,104755.72
2022-09-18T01:18:25.791Z,104775.59
2022-09-18T01:20:54.926Z,104777.81
2022-09-18T01:23:49.329Z,104826.25
2022-09-18T01:26:51.224Z,104845.41
2022-09-18T01:29:39.392Z,104855.53
2022-09-18T01:32:14.604Z,104852.66
2022-09-18T01:35:18.761Z,104902.78
2022-09-18T01:38:00.767Z,104932.16
2022-09-18T01:40:34.683Z,104871.94
2022-09-18T01:43:05.279Z,104869.97
2022-09-18T01:45:35.505Z,104884.38
2022-09-18T01:48:06.644Z,104933.22
2022-09-18T01:50:38.102Z,104852.06
2022-09-18T01:53:17.841Z,104896.78
2022-09-18T01:55:50.561Z,104863.84
2022-09-18T01:58:18.815Z,104856.41
2022-09-18T02:00:50.650Z,104784.19
2022-09-18T02:03:27.756Z,104756.38
2022-09-18T02:06:04.419Z,104825.25
2022-09-18T02:08:43.713Z,104786.06
2022-09-18T02:11:15.502Z,104867.19
2022-09-18T02:13:57.839Z,104846.19
2022-09-18T02:17:03.278Z,104891.78
2022-09-18T02:19:45.727Z,104906.94
2022-09-18T02:22:17.446Z,104838.88
2022-09-18T02:24:48.520Z,104916.88
2022-09-18T02:27:16.533Z,104871.28
2022-09-18T02:29:45.427Z,104723.13
2022-09-18T02:32:13.097Z,104757.84
2022-09-18T02:34:42.283Z,104681.88
2022-09-18T02:37:21.973Z,104657.59
2022-09-18T02:40:00.444Z,104627.16
2022-09-18T02:42:26.846Z,104616.59
2022-09-18T02:45:30.453Z,104540.75
2022-09-18T02:48:24.920Z,104556.28
2022-09-18T02:51:28.882Z,104524.91
2022-09-18T02:54:45.597Z,104469.50
2022-09-18T02:57:20.657Z,104414.44
2022-09-18T02:59:54.749Z,104394.03
2022-09-18T03:02:22.733Z,104413.75
2022-09-18T03:04:50.076Z,104373.19
2022-09-18T03:07:17.317Z,104353.94
2022-09-18T03:09:44.238Z,104420.88
2022-09-18T03:12:11.316Z,104390.69
2022-09-18T03:14:37.747Z,104381.06
2022-09-18T03:17:04.344Z,104393.78
2022-09-18T03:19:30.840Z,104348.47
2022-09-18T03:21:57.306Z,104413.03
2022-09-18T03:24:23.787Z,104396.31
2022-09-18T03:26:51.773Z,104445.44
2022-09-18T03:29:18.341Z,104420.59
2022-09-18T03:31:44.844Z,104455.81
2022-09-18T03:34:11.359Z,104424.19
2022-09-18T03:36:37.791Z,104419.56
2022-09-18T03:39:05.153Z,104345.09
2022-09-18T03:41:31.836Z,104407.19
2022-09-18T03:43:58.277Z,104447.16
2022-09-18T03:46:24.721Z,104374.50
2022-09-18T03:48:52.445Z,104389.63
2022-09-18T03:51:19.928Z,104288.72
2022-09-18T03:53:47.230Z,104356.94
2022-09-18T03:56:15.123Z,104268.53
2022-09-18T03:58:41.865Z,104343.59
2022-09-18T04:01:08.889Z,104256.16
2022-09-18T04:03:35.692Z,104331.94
2022-09-18T04:06:02.114Z,104314.00
2022-09-18T04:08:28.699Z,104275.47
2022-09-18T04:10:55.086Z,104226.75
2022-09-18T04:13:22.025Z,104120.50
2022-09-18T04:15:48.458Z,104157.97
2022-09-18T04:18:14.896Z,104148.69
2022-09-18T04:20:41.270Z,104112.09
2022-09-18T04:23:07.683Z,104081.00
2022-09-18T04:25:34.393Z,104095.53
2022-09-18T04:28:00.867Z,104067.16
2022-09-18T04:30:27.261Z,103963.50
2022-09-18T04:32:53.651Z,103932.06
2022-09-18T04:35:20.126Z,103969.97
2022-09-18T04:37:46.530Z,103946.09
2022-09-18T04:40:13.259Z,103924.97
2022-09-18T04:42:39.702Z,103898.34
2022-09-18T04:45:06.721Z,103896.63
2022-09-18T04:47:33.113Z,103836.25
2022-09-18T04:49:59.489Z,103845.91
2022-09-18T04:52:25.922Z,103862.22
2022-09-18T04:54:52.397Z,103782.91
2022-09-18T04:57:18.813Z,103854.94
2022-09-18T04:59:45.226Z,103848.06
2022-09-18T05:02:11.770Z,103778.00
2022-09-18T05:04:38.289Z,103836.66
2022-09-18T05:07:04.769Z,103829.50
2022-09-18T05:09:31.383Z,103791.09
2022-09-18T05:11:58.162Z,103817.81
2022-09-18T05:14:24.638Z,103803.59
2022-09-18T05:16:51.026Z,103755.94
2022-09-18T05:19:17.395Z,103734.03
2022-09-18T05:21:43.795Z,103805.06
2022-09-18T05:24:10.396Z,103806.59
2022-09-18T05:26:36.791Z,103729.16
2022-09-18T05:29:03.266Z,103754.63
2022-09-18T05:31:29.824Z,103778.47
2022-09-18T05:33:56.212Z,103757.81
2022-09-18T05:36:22.609Z,103738.53
2022-09-18T05:38:49.013Z,103723.50
2022-09-18T05:41:15.464Z,103784.84
2022-09-18T05:43:44.300Z,103774.66
2022-09-18T05:46:10.862Z,103768.47
2022-09-18T05:48:37.666Z,103715.41
2022-09-18T05:51:04.214Z,103761.75
2022-09-18T05:53:30.545Z,103764.22
2022-09-18T05:55:59.476Z,103779.63
2022-09-18T05:58:25.880Z,103685.16
2022-09-18T06:00:52.285Z,103743.03
2022-09-18T06:03:18.707Z,103679.38
2022-09-18T06:05:52.357Z,103678.28
2022-09-18T06:08:19.061Z,103716.88
2022-09-18T06:10:45.542Z,103730.22
2022-09-18T06:13:17.344Z,103688.19
2022-09-18T06:15:49.338Z,103681.75
2022-09-18T06:18:15.778Z,103628.72
2022-09-18T06:20:43.829Z,103649.25
2022-09-18T06:23:11.907Z,103690.13
2022-09-18T06:25:38.267Z,103688.09
2022-09-18T06:28:05.002Z,103644.72
2022-09-18T06:30:33.684Z,103639.31
2022-09-18T06:33:02.292Z,103625.97
2022-09-18T06:35:29.107Z,103603.38
2022-09-18T06:37:55.520Z,103539.16
2022-09-18T06:40:22.067Z,103594.72
2022-09-18T06:42:48.639Z,103556.59
2022-09-18T06:45:15.139Z,103620.16
2022-09-18T06:47:41.533Z,103586.88
2022-09-18T06:50:08.372Z,103582.50
2022-09-18T06:52:34.788Z,103651.81
2022-09-18T06:55:01.216Z,103635.44
2022-09-18T06:57:27.687Z,103635.56
2022-09-18T06:59:54.101Z,103567.59
2022-09-18T07:02:20.581Z,103606.66
2022-09-18T07:04:47.031Z,103593.69
2022-09-18T07:07:13.518Z,103591.91
2022-09-18T07:09:39.936Z,103574.81
2022-09-18T07:12:06.522Z,103556.22
2022-09-18T07:14:32.913Z,103544.03
2022-09-18T07:16:59.255Z,103523.69
2022-09-18T07:19:25.663Z,103443.00
2022-09-18T07:21:52.735Z,103483.19
2022-09-18T07:24:19.309Z,103440.56
2022-09-18T07:26:45.780Z,103457.84
2022-09-18T07:29:12.237Z,103382.69
2022-09-18T07:31:38.707Z,103413.66
2022-09-18T07:34:05.222Z,103346.47
2022-09-18T07:36:31.611Z,103368.78
2022-09-18T07:38:58.202Z,103358.31
2022-09-18T07:41:24.737Z,103296.38
2022-09-18T07:43:51.273Z,103324.81
2022-09-18T07:46:17.816Z,103318.53
2022-09-18T07:48:44.255Z,103232.31
2022-09-18T07:51:10.932Z,103240.97
2022-09-18T07:53:37.361Z,103278.66
2022-09-18T07:56:11.369Z,103213.44
2022-09-18T07:58:38.137Z,103252.94
2022-09-18T08:01:05.637Z,103195.00
2022-09-18T08:03:32.391Z,103233.00
2022-09-18T08:05:59.210Z,103215.22
2022-09-18T08:08:25.730Z,103153.41
2022-09-18T08:10:52.324Z,103131.91
2022-09-18T08:13:18.790Z,103131.88
2022-09-18T08:15:45.200Z,103168.69
2022-09-18T08:18:11.637Z,103142.16
2022-09-18T08:20:38.291Z,103107.59
2022-09-18T08:23:06.268Z,103043.13
2022-09-18T08:25:33.103Z,102971.56
2022-09-18T08:28:03.816Z,102961.06
2022-09-18T08:30:30.631Z,102925.03
2022-09-18T08:33:01.786Z,102896.97
2022-09-18T08:35:29.640Z,102874.47
2022-09-18T08:37:56.412Z,102816.56
2022-09-18T08:40:37.996Z,102871.75
2022-09-18T08:43:36.989Z,102850.94
2022-09-18T08:46:14.870Z,102803.34
2022-09-18T08:48:50.091Z,102847.16
2022-09-18T08:51:26.022Z,102836.41
2022-09-18T08:53:57.135Z,102824.25
2022-09-18T08:56:25.502Z,102772.97
2022-09-18T08:58:57.022Z,102760.13
2022-09-18T09:01:32.590Z,102718.16
2022-09-18T09:04:01.754Z,102691.88
2022-09-18T09:06:46.787Z,102662.34
2022-09-18T09:09:34.619Z,102753.00
2022-09-18T09:12:19.941Z,102752.22
2022-09-18T09:14:57.624Z,102789.34
2022-09-18T09:17:40.299Z,102802.22
2022-09-18T09:20:23.243Z,102760.00
2022-09-18T09:23:05.266Z,102803.28
2022-09-18T09:25:46.917Z,102748.72
2022-09-18T09:28:23.398Z,102823.28
2022-09-18T09:30:56.771Z,102854.09
2022-09-18T09:33:39.129Z,102893.66
2022-09-18T09:36:11.957Z,102921.66
2022-09-18T09:38:38.368Z,102939.69
2022-09-18T09:41:22.639Z,102944.25
2022-09-18T09:43:54.714Z,102932.75
2022-09-18T09:46:46.153Z,102970.22
2022-09-18T09:49:28.331Z,102968.03
2022-09-18T09:52:09.617Z,102963.44
2022-09-18T09:54:36.285Z,102949.72
2022-09-18T09:57:27.676Z,102956.28
2022-09-18T10:00:07.474Z,102968.72
2022-09-18T10:03:19.395Z,102884.41
2022-09-18T10:06:15.440Z,102939.28
2022-09-18T10:08:50.799Z,102948.63
2022-09-18T10:11:17.358Z,103053.16
2022-09-18T10:13:53.544Z,103056.56
2022-09-18T10:16:27.750Z,103085.91
2022-09-18T10:18:54.162Z,103009.97
2022-09-18T10:21:24.679Z,103045.25
2022-09-18T10:24:35.143Z,103028.81
2022-09-18T10:27:10.780Z,103017.19
2022-09-18T10:29:37.503Z,102956.31
2022-09-18T10:32:04.755Z,103009.56
2022-09-18T10:34:48.537Z,102907.34
2022-09-18T10:37:26.811Z,102919.03
2022-09-18T10:39:55.151Z,102897.19
2022-09-18T10:42:24.227Z,102865.97
2022-09-18T10:45:01.185Z,102811.63
2022-09-18T10:47:36.434Z,102785.66
2022-09-18T10:50:06.011Z,102744.41
2022-09-18T10:52:36.442Z,102696.94
2022-09-18T10:55:02.845Z,102648.84
2022-09-18T10:57:33.706Z,102649.66
2022-09-18T11:00:01.107Z,102586.88
2022-09-18T11:02:33.256Z,102623.22
2022-09-18T11:05:03.451Z,102590.94
2022-09-18T11:07:29.933Z,102543.91
2022-09-18T11:09:56.386Z,102485.78
2022-09-18T11:12:25.514Z,102437.72
2022-09-18T11:15:04.113Z,102337.59
2022-09-18T11:17:34.977Z,102359.41
2022-09-18T11:20:04.492Z,102283.34
2022-09-18T11:22:35.360Z,102340.84
2022-09-18T11:25:13.828Z,102364.28
2022-09-18T11:27:48.110Z,102408.81
2022-09-18T11:30:26.933Z,102474.44
2022-09-18T11:33:00.159Z,102589.84
2022-09-18T11:35:29.565Z,102658.28
2022-09-18T11:37:59.505Z,102718.25
2022-09-18T11:40:32.962Z,102764.59
2022-09-18T11:43:00.452Z,102727.19
2022-09-18T11:45:41.722Z,102810.09
2022-09-18T11:48:49.443Z,102816.63
2022-09-18T11:51:28.142Z,102832.44
2022-09-18T11:54:05.491Z,102827.88
2022-09-18T11:56:39.727Z,102861.47
2022-09-18T11:59:19.281Z,102894.88
2022-09-18T12:01:51.465Z,102934.75
2022-09-18T12:04:55.879Z,102938.25
2022-09-18T12:07:40.443Z,102920.94
2022-09-18T12:10:33.511Z,102945.47
2022-09-18T12:13:37.241Z,102945.63
2022-09-18T12:16:16.035Z,102983.94
2022-09-18T12:19:08.657Z,102984.91
2022-09-18T12:21:50.877Z,102994.91
2022-09-18T12:24:17.354Z,102915.00
2022-09-18T12:27:06.680Z,102970.19
2022-09-18T12:30:18.674Z,102964.25
2022-09-18T12:33:30.161Z,102969.66
2022-09-18T12:36:51.305Z,102959.28
2022-09-18T12:39:27.332Z,102958.97
2022-09-18T12:42:15.816Z,102956.69
2022-09-18T12:45:10.177Z,102944.41
2022-09-18T12:47:47.061Z,102939.72
2022-09-18T12:50:21.537Z,102932.69
2022-09-18T12:53:09.812Z,102964.47
2022-09-18T12:56:01.344Z,103008.59
2022-09-18T12:59:01.248Z,103042.66
2022-09-18T13:01:35.031Z,103038.72
2022-09-18T13:04:30.940Z,103244.41
2022-09-18T13:07:22.647Z,103233.66
2022-09-18T13:09:58.857Z,103329.84
2022-09-18T13:12:48.698Z,103433.84
2022-09-18T13:15:21.350Z,103462.28
2022-09-18T13:17:57.128Z,103581.94
2022-09-18T13:20:33.824Z,103652.97
2022-09-18T13:23:00.987Z,103745.47
2022-09-18T13:25:32.929Z,103792.16
2022-09-18T13:28:03.411Z,103786.19
2022-09-18T13:30:31.477Z,103908.72
2022-09-18T13:32:59.550Z,103839.47
2022-09-18T13:35:28.110Z,103951.19
2022-09-18T13:38:14.774Z,104020.97
2022-09-18T13:41:03.053Z,104080.31
2022-09-18T13:43:29.431Z,104066.88
2022-09-18T13:45:57.294Z,104125.41
2022-09-18T13:48:30.905Z,104092.41
2022-09-18T13:51:02.289Z,104072.81
2022-09-18T13:54:08.963Z,104067.84
2022-09-18T13:57:03.458Z,104079.28
2022-09-18T13:59:45.044Z,104053.34
2022-09-18T14:02:43.769Z,104017.59
2022-09-18T14:05:38.730Z,104028.50
2022-09-18T14:08:33.871Z,104004.97
2022-09-18T14:11:17.606Z,103931.47
2022-09-18T14:13:48.975Z,104021.66
2022-09-18T14:16:21.361Z,104107.66
2022-09-18T14:18:47.770Z,104150.47
2022-09-18T14:21:17.245Z,104189.53
2022-09-18T14:23:46.789Z,104198.69
2022-09-18T14:26:31.123Z,104218.72
2022-09-18T14:29:08.729Z,104217.09
2022-09-18T14:31:41.240Z,104223.84
2022-09-18T14:34:43.135Z,104219.03
2022-09-18T14:37:18.607Z,104226.19
2022-09-18T14:39:45.529Z,104145.59
2022-09-18T14:42:21.380Z,104188.69
2022-09-18T14:44:50.745Z,104223.31
2022-09-18T14:47:22.240Z,104308.63
2022-09-18T14:49:49.473Z,104293.19
2022-09-18T14:52:30.104Z,104535.31
2022-09-18T14:54:59.392Z,104534.63
2022-09-18T14:57:31.959Z,104673.59
2022-09-18T15:00:01.268Z,104716.50
2022-09-18T15:02:32.917Z,104776.72
2022-09-18T15:05:01.352Z,104860.22
2022-09-18T15:07:27.916Z,104866.56
2022-09-18T15:09:57.391Z,104835.81
2022-09-18T15:12:25.436Z,104875.66
2022-09-18T15:14:51.883Z,104963.13
2022-09-18T15:17:23.757Z,105045.31
2022-09-18T15:20:09.358Z,105260.94
2022-09-18T15:22:35.882Z,105233.91
2022-09-18T15:25:02.327Z,105185.97
2022-09-18T15:27:30.284Z,105100.91
2022-09-18T15:30:02.412Z,105123.00
2022-09-18T15:32:37.746Z,105108.03
2022-09-18T15:35:06.286Z,105074.94
2022-09-18T15:37:32.724Z,105053.56
2022-09-18T15:40:04.116Z,105015.34
2022-09-18T15:42:36.586Z,105087.28
2022-09-18T15:45:02.959Z,105059.22
2022-09-18T15:47:30.378Z,105006.69
2022-09-18T15:49:57.939Z,105034.13
2022-09-18T15:52:59.869Z,105039.44
2022-09-18T15:55:29.718Z,104928.09
2022-09-18T15:58:02.462Z,104990.44
2022-09-18T16:00:31.435Z,104907.50
2022-09-18T16:03:07.330Z,104990.84
2022-09-18T16:05:35.266Z,104964.56
2022-09-18T16:08:15.768Z,104927.28
2022-09-18T16:10:42.139Z,104903.63
2022-09-18T16:13:11.600Z,104875.66
2022-09-18T16:15:38.001Z,104833.56
2022-09-18T16:18:16.503Z,104834.38
2022-09-18T16:21:00.212Z,104814.38
2022-09-18T16:23:36.826Z,104810.97
2022-09-18T16:26:34.519Z,104787.41
2022-09-18T16:29:13.277Z,104780.00
2022-09-18T16:31:39.779Z,104746.44
2022-09-18T16:34:27.332Z,104739.56
2022-09-18T16:36:54.476Z,104746.28
2022-09-18T16:39:23.478Z,104650.88
2022-09-18T16:41:50.123Z,104719.31
2022-09-18T16:44:18.323Z,104730.91
2022-09-18T16:46:50.625Z,104759.13
2022-09-18T16:49:21.661Z,104776.00
2022-09-18T16:51:48.395Z,104710.06
2022-09-18T16:54:14.834Z,104777.94
2022-09-18T16:56:46.799Z,104837.50
2022-09-18T16:59:13.422Z,104763.69
2022-09-18T17:02:00.375Z,104760.88
2022-09-18T17:04:27.222Z,104910.31
2022-09-18T17:06:54.011Z,104922.53
2022-09-18T17:09:20.924Z,104868.34
2022-09-18T17:11:47.369Z,104938.34
2022-09-18T17:14:13.756Z,104939.09
2022-09-18T17:16:44.835Z,105013.69
2022-09-18T17:19:12.274Z,105030.84
2022-09-18T17:21:39.218Z,105031.81
2022-09-18T17:24:06.210Z,105018.00
2022-09-18T17:26:35.198Z,104934.03
2022-09-18T17:29:01.635Z,104941.69
2022-09-18T17:31:28.260Z,105042.59
2022-09-18T17:33:55.940Z,104958.94
2022-09-18T17:36:22.530Z,105047.81
2022-09-18T17:38:49.190Z,105056.81
2022-09-18T17:41:18.060Z,104971.78
2022-09-18T17:43:44.538Z,105001.66
2022-09-18T17:46:13.113Z,105003.00
2022-09-18T17:48:39.917Z,105072.13
2022-09-18T17:51:12.310Z,105103.53
2022-09-18T17:53:40.358Z,105074.50
2022-09-18T17:56:09.729Z,105037.00
2022-09-18T17:58:36.308Z,105076.88
2022-09-18T18:01:09.290Z,105158.34
2022-09-18T18:03:35.768Z,105387.00
2022-09-18T18:06:03.226Z,105449.06
2022-09-18T18:08:30.406Z,105370.66
2022-09-18T18:11:03.834Z,105340.16
2022-09-18T18:13:30.351Z,105325.13
2022-09-18T18:16:09.329Z,105257.38
2022-09-18T18:18:36.836Z,105208.19
2022-09-18T18:21:05.226Z,105153.00
2022-09-18T18:23:32.300Z,104969.22
2022-09-18T18:26:05.931Z,104906.22
2022-09-18T18:28:33.337Z,104779.78
2022-09-18T18:31:01.406Z,104812.31
2022-09-18T18:33:27.880Z,104706.44
2022-09-18T18:35:54.315Z,104804.91
2022-09-18T18:38:20.732Z,104826.44
2022-09-18T18:40:47.176Z,104761.63
2022-09-18T18:43:13.618Z,104749.25
2022-09-18T18:45:49.991Z,104821.72
2022-09-18T18:48:16.366Z,104833.56
2022-09-18T18:50:42.760Z,104763.97
2022-09-18T18:53:09.146Z,104861.75
2022-09-18T18:55:35.622Z,104817.13
2022-09-18T18:58:02.085Z,104945.69
2022-09-18T19:00:28.511Z,104972.06
2022-09-18T19:02:55.151Z,104968.31
2022-09-18T19:05:21.594Z,104976.06
2022-09-18T19:07:48.124Z,104947.13
2022-09-18T19:10:14.627Z,104892.03
2022-09-18T19:12:41.002Z,104887.59
2022-09-18T19:15:07.886Z,105015.22
2022-09-18T19:17:34.291Z,104936.88
2022-09-18T19:20:00.757Z,104961.78
2022-09-18T19:22:27.156Z,104906.16
2022-09-18T19:24:53.559Z,104905.38
2022-09-18T19:27:19.987Z,104891.56
2022-09-18T19:29:48.639Z,104801.28
2022-09-18T19:32:15.028Z,104879.88
2022-09-18T19:34:41.401Z,104855.19
2022-09-18T19:37:11.707Z,104759.59
2022-09-18T19:39:38.973Z,104841.00
2022-09-18T19:42:13.850Z,104736.75
2022-09-18T19:44:54.846Z,104801.56
2022-09-18T19:47:26.560Z,104753.00
2022-09-18T19:49:53.945Z,104853.00
2022-09-18T19:52:22.924Z,104875.22
2022-09-18T19:54:51.272Z,104839.50
2022-09-18T19:57:19.379Z,104728.22
2022-09-18T19:59:46.154Z,104769.25
2022-09-18T20:02:14.765Z,104861.44
2022-09-18T20:04:41.307Z,104792.13
2022-09-18T20:07:08.169Z,104898.91
2022-09-18T20:09:34.603Z,104832.78
2022-09-18T20:12:01.182Z,104902.69
2022-09-18T20:14:28.189Z,104857.59
2022-09-18T20:16:55.573Z,105033.41
2022-09-18T20:19:23.236Z,104916.19
2022-09-18T20:21:49.806Z,105025.00
2022-09-18T20:24:17.267Z,104937.13
2022-09-18T20:26:44.089Z,104902.59
2022-09-18T20:29:15.273Z,104895.03
2022-09-18T20:31:42.426Z,104995.81
2022-09-18T20:34:09.357Z,104963.19
2022-09-18T20:36:35.780Z,104809.53
2022-09-18T20:39:02.215Z,104843.44
2022-09-18T20:41:29.053Z,104788.81
2022-09-18T20:44:00.144Z,104743.69
2022-09-18T20:46:26.666Z,104646.84
2022-09-18T20:48:53.168Z,104697.84
2022-09-18T20:51:19.654Z,104580.56
2022-09-18T20:53:46.195Z,104584.47
2022-09-18T20:56:14.247Z,104497.09
2022-09-18T20:58:41.113Z,104546.59
2022-09-18T21:01:08.224Z,104548.44
2022-09-18T21:03:39.647Z,104553.13
2022-09-18T21:06:21.905Z,104485.84
2022-09-18T21:08:51.155Z,104510.88
2022-09-18T21:11:28.951Z,104500.13
2022-09-18T21:13:57.845Z,104481.97
2022-09-18T21:16:26.104Z,104438.16
2022-09-18T21:18:54.021Z,104372.28
2022-09-18T21:21:20.524Z,104426.25
2022-09-18T21:23:47.098Z,104390.56
2022-09-18T21:26:17.472Z,104335.78
2022-09-18T21:28:44.157Z,104406.22
2022-09-18T21:31:11.476Z,104415.19
2022-09-18T21:33:39.891Z,104345.53
2022-09-18T21:36:06.352Z,104264.78
2022-09-18T21:38:32.960Z,104345.09
2022-09-18T21:41:03.964Z,104347.38
2022-09-18T21:43:31.662Z,104253.84
2022-09-18T21:46:09.470Z,104329.44
2022-09-18T21:48:35.931Z,104315.41
2022-09-18T21:51:07.314Z,104319.25
2022-09-18T21:53:34.568Z,104296.13
2022-09-18T21:56:06.034Z,104323.84
2022-09-18T21:58:34.691Z,104266.50
2022-09-18T22:01:10.385Z,104341.94
2022-09-18T22:03:36.804Z,104250.34
2022-09-18T22:06:03.211Z,104366.75
2022-09-18T22:08:30.601Z,104369.97
2022-09-18T22:11:02.027Z,104383.84
2022-09-18T22:13:31.589Z,104357.56
2022-09-18T22:15:59.084Z,104340.69
2022-09-18T22:18:26.591Z,104287.34
2022-09-18T22:20:53.797Z,104308.47
2022-09-18T22:23:20.225Z,104332.09
2022-09-18T22:25:46.698Z,104278.13
2022-09-18T22:28:13.094Z,104228.75
2022-09-18T22:30:39.482Z,104287.25
2022-09-18T22:33:05.893Z,104298.25
2022-09-18T22:35:32.861Z,104233.22
2022-09-18T22:37:59.295Z,104156.31
2022-09-18T22:40:26.165Z,104137.25
2022-09-18T22:42:52.620Z,104206.06
2022-09-18T22:45:21.893Z,104186.38
2022-09-18T22:47:48.275Z,104099.03
2022-09-18T22:50:14.662Z,104187.97
2022-09-18T22:52:41.025Z,104084.38
2022-09-18T22:55:07.805Z,104100.31
2022-09-18T22:57:34.216Z,104163.97
2022-09-18T23:00:00.639Z,104217.09
2022-09-18T23:02:27.073Z,104219.00
2022-09-18T23:04:53.534Z,104253.56
2022-09-18T23:07:20.004Z,104277.31
2022-09-18T23:09:47.395Z,104208.03
2022-09-18T23:12:13.818Z,104292.44
2022-09-18T23:14:40.241Z,104270.03
2022-09-18T23:17:06.645Z,104276.28
2022-09-18T23:19:34.379Z,104221.28
2022-09-18T23:22:01.546Z,104195.91
2022-09-18T23:24:28.206Z,104188.00
2022-09-18T23:26:56.926Z,104151.03
2022-09-18T23:29:25.237Z,104160.53
2022-09-18T23:31:53.546Z,104146.38
2022-09-18T23:34:22.577Z,104091.84
2022-09-18T23:36:52.040Z,104175.66
2022-09-18T23:39:19.804Z,104160.78
2022-09-18T23:41:46.297Z,104149.09
2022-09-18T23:44:15.031Z,104170.84
2022-09-18T23:46:42.356Z,104234.47
2022-09-18T23:49:09.835Z,104299.38
2022-09-18T23:51:38.727Z,104315.22
2022-09-18T23:54:07.109Z,104265.03
2022-09-18T23:56:34.925Z,104313.03
2022-09-18T23:59:04.100Z,104273.22
